sensor_id;sensor_type;location;lat;lon;timestamp;P1;durP1;ratioP1;P2;durP2;ratioP2
26756;SDS011;23848;49.798;10.228;2023-03-01T00:00:06;17.83;;;11.02;;
26756;SDS011;23848;49.798;10.228;2023-03-01T00:02:34;18.05;;;10.40;;
26756;SDS011;23848;49.798;10.228;2023-03-01T00:05:03;17.48;;;11.50;;
26756;SDS011;23848;49.798;10.228;2023-03-01T00:07:34;19.15;;;11.18;;
26756;SDS011;23848;49.798;10.228;2023-03-01T00:10:03;22.88;;;11.52;;
26756;SDS011;23848;49.798;10.228;2023-03-01T00:12:31;19.25;;;10.05;;
26756;SDS011;23848;49.798;10.228;2023-03-01T00:15:00;19.15;;;10.60;;
26756;SDS011;23848;49.798;10.228;2023-03-01T00:17:28;19.02;;;10.73;;
26756;SDS011;23848;49.798;10.228;2023-03-01T00:19:56;15.73;;;10.07;;
26756;SDS011;23848;49.798;10.228;2023-03-01T00:22:26;18.20;;;10.45;;
26756;SDS011;23848;49.798;10.228;2023-03-01T00:24:56;19.30;;;10.15;;
26756;SDS011;23848;49.798;10.228;2023-03-01T00:27:25;16.58;;;10.02;;
26756;SDS011;23848;49.798;10.228;2023-03-01T00:29:53;20.60;;;10.63;;
26756;SDS011;23848;49.798;10.228;2023-03-01T00:32:21;16.77;;;10.00;;
26756;SDS011;23848;49.798;10.228;2023-03-01T00:34:50;18.00;;;10.18;;
26756;SDS011;23848;49.798;10.228;2023-03-01T00:37:22;18.48;;;10.52;;
26756;SDS011;23848;49.798;10.228;2023-03-01T00:39:51;21.77;;;11.05;;
26756;SDS011;23848;49.798;10.228;2023-03-01T00:42:21;19.63;;;10.30;;
26756;SDS011;23848;49.798;10.228;2023-03-01T00:44:49;20.05;;;10.75;;
26756;SDS011;23848;49.798;10.228;2023-03-01T00:47:17;18.52;;;10.40;;
26756;SDS011;23848;49.798;10.228;2023-03-01T00:49:46;20.30;;;10.88;;
26756;SDS011;23848;49.798;10.228;2023-03-01T00:52:14;20.63;;;10.43;;
26756;SDS011;23848;49.798;10.228;2023-03-01T00:54:44;20.92;;;10.32;;
26756;SDS011;23848;49.798;10.228;2023-03-01T00:57:13;19.65;;;10.80;;
26756;SDS011;23848;49.798;10.228;2023-03-01T00:59:43;19.33;;;10.57;;
26756;SDS011;23848;49.798;10.228;2023-03-01T01:02:11;21.70;;;11.80;;
26756;SDS011;23848;49.798;10.228;2023-03-01T01:04:39;19.27;;;10.50;;
26756;SDS011;23848;49.798;10.228;2023-03-01T01:07:08;19.50;;;11.57;;
26756;SDS011;23848;49.798;10.228;2023-03-01T01:09:36;21.25;;;11.55;;
26756;SDS011;23848;49.798;10.228;2023-03-01T01:12:05;19.52;;;10.75;;
26756;SDS011;23848;49.798;10.228;2023-03-01T01:14:33;22.70;;;11.93;;
26756;SDS011;23848;49.798;10.228;2023-03-01T01:17:03;20.17;;;10.85;;
26756;SDS011;23848;49.798;10.228;2023-03-01T01:19:33;21.05;;;11.05;;
26756;SDS011;23848;49.798;10.228;2023-03-01T01:22:02;21.90;;;11.90;;
26756;SDS011;23848;49.798;10.228;2023-03-01T01:24:30;22.42;;;11.65;;
26756;SDS011;23848;49.798;10.228;2023-03-01T01:26:58;24.55;;;12.88;;
26756;SDS011;23848;49.798;10.228;2023-03-01T01:29:27;27.98;;;14.80;;
26756;SDS011;23848;49.798;10.228;2023-03-01T01:31:55;23.23;;;12.93;;
26756;SDS011;23848;49.798;10.228;2023-03-01T01:34:25;25.90;;;13.35;;
26756;SDS011;23848;49.798;10.228;2023-03-01T01:36:53;28.45;;;14.50;;
26756;SDS011;23848;49.798;10.228;2023-03-01T01:39:22;25.25;;;13.02;;
26756;SDS011;23848;49.798;10.228;2023-03-01T01:41:50;27.70;;;13.55;;
26756;SDS011;23848;49.798;10.228;2023-03-01T01:44:19;28.58;;;14.13;;
26756;SDS011;23848;49.798;10.228;2023-03-01T01:46:51;24.13;;;14.00;;
26756;SDS011;23848;49.798;10.228;2023-03-01T01:49:27;24.25;;;12.73;;
26756;SDS011;23848;49.798;10.228;2023-03-01T01:51:57;22.38;;;11.43;;
26756;SDS011;23848;49.798;10.228;2023-03-01T01:54:30;22.77;;;11.77;;
26756;SDS011;23848;49.798;10.228;2023-03-01T01:57:00;20.45;;;11.77;;
26756;SDS011;23848;49.798;10.228;2023-03-01T01:59:30;20.20;;;11.40;;
26756;SDS011;23848;49.798;10.228;2023-03-01T02:02:00;24.00;;;12.88;;
26756;SDS011;23848;49.798;10.228;2023-03-01T02:04:31;23.10;;;11.95;;
26756;SDS011;23848;49.798;10.228;2023-03-01T02:07:01;24.08;;;12.32;;
26756;SDS011;23848;49.798;10.228;2023-03-01T02:09:32;25.52;;;13.63;;
26756;SDS011;23848;49.798;10.228;2023-03-01T02:12:01;25.55;;;13.35;;
26756;SDS011;23848;49.798;10.228;2023-03-01T02:14:30;26.83;;;13.70;;
26756;SDS011;23848;49.798;10.228;2023-03-01T02:16:58;24.20;;;12.88;;
26756;SDS011;23848;49.798;10.228;2023-03-01T02:19:30;24.00;;;12.52;;
26756;SDS011;23848;49.798;10.228;2023-03-01T02:22:03;23.38;;;12.23;;
26756;SDS011;23848;49.798;10.228;2023-03-01T02:24:35;26.75;;;13.43;;
26756;SDS011;23848;49.798;10.228;2023-03-01T02:27:07;22.38;;;12.80;;
26756;SDS011;23848;49.798;10.228;2023-03-01T02:29:38;25.35;;;14.00;;
26756;SDS011;23848;49.798;10.228;2023-03-01T02:32:10;21.20;;;12.50;;
26756;SDS011;23848;49.798;10.228;2023-03-01T02:34:40;22.45;;;12.00;;
26756;SDS011;23848;49.798;10.228;2023-03-01T02:37:09;22.17;;;12.57;;
26756;SDS011;23848;49.798;10.228;2023-03-01T02:39:39;24.02;;;12.43;;
26756;SDS011;23848;49.798;10.228;2023-03-01T02:42:09;21.95;;;11.82;;
26756;SDS011;23848;49.798;10.228;2023-03-01T02:44:40;22.55;;;12.00;;
26756;SDS011;23848;49.798;10.228;2023-03-01T02:47:08;22.80;;;12.93;;
26756;SDS011;23848;49.798;10.228;2023-03-01T02:49:37;24.25;;;13.65;;
26756;SDS011;23848;49.798;10.228;2023-03-01T02:52:17;23.00;;;12.80;;
26756;SDS011;23848;49.798;10.228;2023-03-01T02:54:50;23.42;;;11.80;;
26756;SDS011;23848;49.798;10.228;2023-03-01T02:57:20;21.58;;;12.05;;
26756;SDS011;23848;49.798;10.228;2023-03-01T02:59:51;25.98;;;12.98;;
26756;SDS011;23848;49.798;10.228;2023-03-01T03:02:21;28.50;;;13.40;;
26756;SDS011;23848;49.798;10.228;2023-03-01T03:05:06;25.40;;;12.35;;
26756;SDS011;23848;49.798;10.228;2023-03-01T03:07:35;23.43;;;13.00;;
26756;SDS011;23848;49.798;10.228;2023-03-01T03:10:04;24.50;;;13.38;;
26756;SDS011;23848;49.798;10.228;2023-03-01T03:12:34;24.38;;;13.10;;
26756;SDS011;23848;49.798;10.228;2023-03-01T03:15:04;21.35;;;12.48;;
26756;SDS011;23848;49.798;10.228;2023-03-01T03:17:35;23.43;;;13.83;;
26756;SDS011;23848;49.798;10.228;2023-03-01T03:20:05;21.33;;;12.07;;
26756;SDS011;23848;49.798;10.228;2023-03-01T03:22:37;23.95;;;12.70;;
26756;SDS011;23848;49.798;10.228;2023-03-01T03:25:06;22.98;;;12.82;;
26756;SDS011;23848;49.798;10.228;2023-03-01T03:27:36;23.15;;;12.50;;
26756;SDS011;23848;49.798;10.228;2023-03-01T03:30:07;22.50;;;12.82;;
26756;SDS011;23848;49.798;10.228;2023-03-01T03:32:36;23.83;;;12.68;;
26756;SDS011;23848;49.798;10.228;2023-03-01T03:35:05;21.35;;;11.85;;
26756;SDS011;23848;49.798;10.228;2023-03-01T03:37:35;26.25;;;12.77;;
26756;SDS011;23848;49.798;10.228;2023-03-01T03:40:22;23.30;;;12.35;;
26756;SDS011;23848;49.798;10.228;2023-03-01T03:42:50;21.42;;;12.98;;
26756;SDS011;23848;49.798;10.228;2023-03-01T03:45:20;21.58;;;11.48;;
26756;SDS011;23848;49.798;10.228;2023-03-01T03:47:48;24.23;;;12.25;;
26756;SDS011;23848;49.798;10.228;2023-03-01T03:50:17;26.05;;;11.80;;
26756;SDS011;23848;49.798;10.228;2023-03-01T03:52:45;23.30;;;11.32;;
26756;SDS011;23848;49.798;10.228;2023-03-01T03:55:14;19.80;;;10.80;;
26756;SDS011;23848;49.798;10.228;2023-03-01T03:57:46;21.13;;;11.25;;
26756;SDS011;23848;49.798;10.228;2023-03-01T04:00:18;23.52;;;11.65;;
26756;SDS011;23848;49.798;10.228;2023-03-01T04:02:48;19.52;;;11.27;;
26756;SDS011;23848;49.798;10.228;2023-03-01T04:05:18;23.63;;;11.50;;
26756;SDS011;23848;49.798;10.228;2023-03-01T04:07:46;22.10;;;11.32;;
26756;SDS011;23848;49.798;10.228;2023-03-01T04:10:15;22.17;;;11.95;;
26756;SDS011;23848;49.798;10.228;2023-03-01T04:12:44;20.27;;;10.95;;
26756;SDS011;23848;49.798;10.228;2023-03-01T04:15:12;22.52;;;11.65;;
26756;SDS011;23848;49.798;10.228;2023-03-01T04:17:41;20.85;;;11.38;;
26756;SDS011;23848;49.798;10.228;2023-03-01T04:20:12;21.90;;;12.20;;
26756;SDS011;23848;49.798;10.228;2023-03-01T04:22:43;20.40;;;11.05;;
26756;SDS011;23848;49.798;10.228;2023-03-01T04:25:13;21.50;;;11.77;;
26756;SDS011;23848;49.798;10.228;2023-03-01T04:27:41;23.67;;;11.80;;
26756;SDS011;23848;49.798;10.228;2023-03-01T04:30:10;20.80;;;11.98;;
26756;SDS011;23848;49.798;10.228;2023-03-01T04:32:38;23.02;;;12.27;;
26756;SDS011;23848;49.798;10.228;2023-03-01T04:35:07;21.88;;;11.50;;
26756;SDS011;23848;49.798;10.228;2023-03-01T04:37:42;24.20;;;12.73;;
26756;SDS011;23848;49.798;10.228;2023-03-01T04:40:11;24.42;;;12.23;;
26756;SDS011;23848;49.798;10.228;2023-03-01T04:42:42;22.60;;;11.82;;
26756;SDS011;23848;49.798;10.228;2023-03-01T04:45:11;24.45;;;12.55;;
26756;SDS011;23848;49.798;10.228;2023-03-01T04:47:40;24.10;;;11.23;;
26756;SDS011;23848;49.798;10.228;2023-03-01T04:50:09;23.52;;;12.25;;
26756;SDS011;23848;49.798;10.228;2023-03-01T04:52:38;21.40;;;12.27;;
26756;SDS011;23848;49.798;10.228;2023-03-01T04:55:08;27.90;;;14.23;;
26756;SDS011;23848;49.798;10.228;2023-03-01T04:57:37;21.55;;;11.43;;
26756;SDS011;23848;49.798;10.228;2023-03-01T05:00:06;23.60;;;12.80;;
26756;SDS011;23848;49.798;10.228;2023-03-01T05:02:47;24.20;;;13.23;;
26756;SDS011;23848;49.798;10.228;2023-03-01T05:05:20;26.33;;;12.85;;
26756;SDS011;23848;49.798;10.228;2023-03-01T05:07:55;23.35;;;12.30;;
26756;SDS011;23848;49.798;10.228;2023-03-01T05:10:25;23.60;;;13.35;;
26756;SDS011;23848;49.798;10.228;2023-03-01T05:12:55;21.75;;;11.95;;
26756;SDS011;23848;49.798;10.228;2023-03-01T05:15:24;22.77;;;12.70;;
26756;SDS011;23848;49.798;10.228;2023-03-01T05:17:53;20.10;;;11.82;;
26756;SDS011;23848;49.798;10.228;2023-03-01T05:20:21;23.40;;;12.00;;
26756;SDS011;23848;49.798;10.228;2023-03-01T05:22:50;20.45;;;11.35;;
26756;SDS011;23848;49.798;10.228;2023-03-01T05:25:18;22.05;;;12.07;;
26756;SDS011;23848;49.798;10.228;2023-03-01T05:27:48;22.35;;;11.60;;
26756;SDS011;23848;49.798;10.228;2023-03-01T05:30:17;23.35;;;12.10;;
26756;SDS011;23848;49.798;10.228;2023-03-01T05:32:46;23.80;;;12.57;;
26756;SDS011;23848;49.798;10.228;2023-03-01T05:35:16;22.13;;;12.13;;
26756;SDS011;23848;49.798;10.228;2023-03-01T05:37:46;23.02;;;12.35;;
26756;SDS011;23848;49.798;10.228;2023-03-01T05:40:15;20.38;;;12.10;;
26756;SDS011;23848;49.798;10.228;2023-03-01T05:42:44;24.30;;;12.80;;
26756;SDS011;23848;49.798;10.228;2023-03-01T05:45:14;23.42;;;12.00;;
26756;SDS011;23848;49.798;10.228;2023-03-01T05:47:44;19.77;;;12.00;;
26756;SDS011;23848;49.798;10.228;2023-03-01T05:50:13;22.70;;;12.40;;
26756;SDS011;23848;49.798;10.228;2023-03-01T05:52:45;21.73;;;11.82;;
26756;SDS011;23848;49.798;10.228;2023-03-01T05:55:15;26.08;;;14.07;;
26756;SDS011;23848;49.798;10.228;2023-03-01T05:57:43;25.77;;;13.05;;
26756;SDS011;23848;49.798;10.228;2023-03-01T06:00:12;25.33;;;13.90;;
26756;SDS011;23848;49.798;10.228;2023-03-01T06:02:42;22.42;;;12.85;;
26756;SDS011;23848;49.798;10.228;2023-03-01T06:05:11;23.17;;;13.32;;
26756;SDS011;23848;49.798;10.228;2023-03-01T06:07:40;29.55;;;15.70;;
26756;SDS011;23848;49.798;10.228;2023-03-01T06:10:09;27.00;;;14.73;;
26756;SDS011;23848;49.798;10.228;2023-03-01T06:12:38;28.35;;;14.85;;
26756;SDS011;23848;49.798;10.228;2023-03-01T06:15:07;35.17;;;19.88;;
26756;SDS011;23848;49.798;10.228;2023-03-01T06:17:37;30.05;;;17.00;;
26756;SDS011;23848;49.798;10.228;2023-03-01T06:20:09;28.02;;;14.85;;
26756;SDS011;23848;49.798;10.228;2023-03-01T06:22:37;24.10;;;13.32;;
26756;SDS011;23848;49.798;10.228;2023-03-01T06:25:06;24.33;;;14.13;;
26756;SDS011;23848;49.798;10.228;2023-03-01T06:27:35;25.80;;;14.43;;
26756;SDS011;23848;49.798;10.228;2023-03-01T06:30:04;23.25;;;14.43;;
26756;SDS011;23848;49.798;10.228;2023-03-01T06:32:33;26.17;;;14.45;;
26756;SDS011;23848;49.798;10.228;2023-03-01T06:35:01;26.13;;;14.32;;
26756;SDS011;23848;49.798;10.228;2023-03-01T06:37:31;26.20;;;14.88;;
26756;SDS011;23848;49.798;10.228;2023-03-01T06:40:01;35.97;;;18.20;;
26756;SDS011;23848;49.798;10.228;2023-03-01T06:42:34;32.75;;;18.35;;
26756;SDS011;23848;49.798;10.228;2023-03-01T06:45:02;35.72;;;18.50;;
26756;SDS011;23848;49.798;10.228;2023-03-01T06:47:31;33.47;;;17.88;;
26756;SDS011;23848;49.798;10.228;2023-03-01T06:50:00;33.80;;;18.65;;
26756;SDS011;23848;49.798;10.228;2023-03-01T06:52:28;31.60;;;17.27;;
26756;SDS011;23848;49.798;10.228;2023-03-01T06:54:58;29.65;;;15.52;;
26756;SDS011;23848;49.798;10.228;2023-03-01T06:57:26;25.35;;;14.70;;
26756;SDS011;23848;49.798;10.228;2023-03-01T06:59:55;25.02;;;14.35;;
26756;SDS011;23848;49.798;10.228;2023-03-01T07:02:23;30.50;;;15.30;;
26756;SDS011;23848;49.798;10.228;2023-03-01T07:04:52;25.52;;;13.65;;
26756;SDS011;23848;49.798;10.228;2023-03-01T07:07:20;25.48;;;14.23;;
26756;SDS011;23848;49.798;10.228;2023-03-01T07:09:49;26.08;;;14.25;;
26756;SDS011;23848;49.798;10.228;2023-03-01T07:12:18;23.15;;;14.00;;
26756;SDS011;23848;49.798;10.228;2023-03-01T07:14:47;28.73;;;14.68;;
26756;SDS011;23848;49.798;10.228;2023-03-01T07:17:15;25.98;;;13.40;;
26756;SDS011;23848;49.798;10.228;2023-03-01T07:19:45;25.63;;;14.45;;
26756;SDS011;23848;49.798;10.228;2023-03-01T07:22:13;25.55;;;14.13;;
26756;SDS011;23848;49.798;10.228;2023-03-01T07:24:41;27.17;;;14.68;;
26756;SDS011;23848;49.798;10.228;2023-03-01T07:27:10;34.55;;;19.02;;
26756;SDS011;23848;49.798;10.228;2023-03-01T07:29:40;24.33;;;14.93;;
26756;SDS011;23848;49.798;10.228;2023-03-01T07:32:08;28.48;;;15.05;;
26756;SDS011;23848;49.798;10.228;2023-03-01T07:34:38;31.58;;;16.05;;
26756;SDS011;23848;49.798;10.228;2023-03-01T07:37:06;28.85;;;17.13;;
26756;SDS011;23848;49.798;10.228;2023-03-01T07:39:34;25.70;;;14.63;;
26756;SDS011;23848;49.798;10.228;2023-03-01T07:42:03;27.20;;;15.88;;
26756;SDS011;23848;49.798;10.228;2023-03-01T07:44:31;28.83;;;16.00;;
26756;SDS011;23848;49.798;10.228;2023-03-01T07:47:02;20.80;;;12.82;;
26756;SDS011;23848;49.798;10.228;2023-03-01T07:49:30;25.90;;;14.32;;
26756;SDS011;23848;49.798;10.228;2023-03-01T07:51:59;24.88;;;13.80;;
26756;SDS011;23848;49.798;10.228;2023-03-01T07:54:27;23.42;;;13.68;;
26756;SDS011;23848;49.798;10.228;2023-03-01T07:56:56;23.10;;;13.68;;
26756;SDS011;23848;49.798;10.228;2023-03-01T07:59:24;24.88;;;14.57;;
26756;SDS011;23848;49.798;10.228;2023-03-01T08:01:55;24.38;;;13.40;;
26756;SDS011;23848;49.798;10.228;2023-03-01T08:04:25;22.33;;;13.35;;
26756;SDS011;23848;49.798;10.228;2023-03-01T08:06:54;21.73;;;13.27;;
26756;SDS011;23848;49.798;10.228;2023-03-01T08:09:22;25.15;;;14.68;;
26756;SDS011;23848;49.798;10.228;2023-03-01T08:11:50;23.88;;;12.85;;
26756;SDS011;23848;49.798;10.228;2023-03-01T08:14:20;25.15;;;14.63;;
26756;SDS011;23848;49.798;10.228;2023-03-01T08:16:49;25.75;;;14.52;;
26756;SDS011;23848;49.798;10.228;2023-03-01T08:19:17;24.13;;;15.27;;
26756;SDS011;23848;49.798;10.228;2023-03-01T08:21:47;26.20;;;15.18;;
26756;SDS011;23848;49.798;10.228;2023-03-01T08:24:15;24.98;;;13.85;;
26756;SDS011;23848;49.798;10.228;2023-03-01T08:26:43;21.65;;;14.55;;
26756;SDS011;23848;49.798;10.228;2023-03-01T08:29:12;23.67;;;12.90;;
26756;SDS011;23848;49.798;10.228;2023-03-01T08:31:40;22.67;;;13.68;;
26756;SDS011;23848;49.798;10.228;2023-03-01T08:34:09;23.98;;;15.40;;
26756;SDS011;23848;49.798;10.228;2023-03-01T08:36:39;23.23;;;13.70;;
26756;SDS011;23848;49.798;10.228;2023-03-01T08:39:09;25.75;;;14.35;;
26756;SDS011;23848;49.798;10.228;2023-03-01T08:41:38;26.85;;;14.77;;
26756;SDS011;23848;49.798;10.228;2023-03-01T08:44:07;21.10;;;13.13;;
26756;SDS011;23848;49.798;10.228;2023-03-01T08:46:36;24.30;;;14.48;;
26756;SDS011;23848;49.798;10.228;2023-03-01T08:49:04;25.08;;;13.30;;
26756;SDS011;23848;49.798;10.228;2023-03-01T08:51:33;21.63;;;12.90;;
26756;SDS011;23848;49.798;10.228;2023-03-01T08:54:03;23.00;;;12.65;;
26756;SDS011;23848;49.798;10.228;2023-03-01T08:56:32;22.67;;;12.45;;
26756;SDS011;23848;49.798;10.228;2023-03-01T08:59:01;22.35;;;12.52;;
26756;SDS011;23848;49.798;10.228;2023-03-01T09:01:29;29.58;;;15.57;;
26756;SDS011;23848;49.798;10.228;2023-03-01T09:03:58;22.13;;;12.38;;
26756;SDS011;23848;49.798;10.228;2023-03-01T09:06:26;20.33;;;12.60;;
26756;SDS011;23848;49.798;10.228;2023-03-01T09:08:55;22.02;;;14.25;;
26756;SDS011;23848;49.798;10.228;2023-03-01T09:11:23;24.88;;;14.77;;
26756;SDS011;23848;49.798;10.228;2023-03-01T09:13:53;21.20;;;13.55;;
26756;SDS011;23848;49.798;10.228;2023-03-01T09:16:21;23.98;;;13.20;;
26756;SDS011;23848;49.798;10.228;2023-03-01T09:18:51;23.17;;;13.20;;
26756;SDS011;23848;49.798;10.228;2023-03-01T09:21:20;21.33;;;13.30;;
26756;SDS011;23848;49.798;10.228;2023-03-01T09:24:05;20.70;;;12.18;;
26756;SDS011;23848;49.798;10.228;2023-03-01T09:26:33;20.40;;;13.30;;
26756;SDS011;23848;49.798;10.228;2023-03-01T09:29:03;19.25;;;13.05;;
26756;SDS011;23848;49.798;10.228;2023-03-01T09:31:31;19.83;;;12.25;;
26756;SDS011;23848;49.798;10.228;2023-03-01T09:34:00;21.90;;;11.70;;
26756;SDS011;23848;49.798;10.228;2023-03-01T09:36:28;19.73;;;12.38;;
26756;SDS011;23848;49.798;10.228;2023-03-01T09:38:57;19.30;;;12.98;;
26756;SDS011;23848;49.798;10.228;2023-03-01T09:41:42;19.90;;;12.85;;
26756;SDS011;23848;49.798;10.228;2023-03-01T09:44:15;19.70;;;13.25;;
26756;SDS011;23848;49.798;10.228;2023-03-01T09:46:46;20.75;;;13.82;;
26756;SDS011;23848;49.798;10.228;2023-03-01T09:49:15;20.38;;;12.90;;
26756;SDS011;23848;49.798;10.228;2023-03-01T09:51:48;20.17;;;13.35;;
26756;SDS011;23848;49.798;10.228;2023-03-01T09:54:22;21.90;;;14.55;;
26756;SDS011;23848;49.798;10.228;2023-03-01T09:56:53;20.90;;;13.35;;
26756;SDS011;23848;49.798;10.228;2023-03-01T09:59:28;21.25;;;13.68;;
26756;SDS011;23848;49.798;10.228;2023-03-01T10:02:00;23.52;;;14.15;;
26756;SDS011;23848;49.798;10.228;2023-03-01T10:04:36;24.63;;;14.50;;
26756;SDS011;23848;49.798;10.228;2023-03-01T10:07:14;25.88;;;15.73;;
26756;SDS011;23848;49.798;10.228;2023-03-01T10:09:45;23.55;;;14.70;;
26756;SDS011;23848;49.798;10.228;2023-03-01T10:12:16;20.80;;;14.02;;
26756;SDS011;23848;49.798;10.228;2023-03-01T10:14:50;21.55;;;13.88;;
26756;SDS011;23848;49.798;10.228;2023-03-01T10:17:22;21.48;;;13.43;;
26756;SDS011;23848;49.798;10.228;2023-03-01T10:19:52;22.38;;;14.43;;
26756;SDS011;23848;49.798;10.228;2023-03-01T10:22:21;18.83;;;13.43;;
26756;SDS011;23848;49.798;10.228;2023-03-01T10:24:49;21.92;;;13.63;;
26756;SDS011;23848;49.798;10.228;2023-03-01T10:27:19;25.70;;;12.85;;
26756;SDS011;23848;49.798;10.228;2023-03-01T10:29:53;20.65;;;13.35;;
26756;SDS011;23848;49.798;10.228;2023-03-01T10:32:22;20.58;;;13.73;;
26756;SDS011;23848;49.798;10.228;2023-03-01T10:34:51;21.58;;;13.02;;
26756;SDS011;23848;49.798;10.228;2023-03-01T10:37:20;20.02;;;13.00;;
26756;SDS011;23848;49.798;10.228;2023-03-01T10:39:57;22.35;;;13.93;;
26756;SDS011;23848;49.798;10.228;2023-03-01T10:42:27;19.45;;;12.93;;
26756;SDS011;23848;49.798;10.228;2023-03-01T10:44:57;20.10;;;12.95;;
26756;SDS011;23848;49.798;10.228;2023-03-01T10:47:26;19.75;;;12.98;;
26756;SDS011;23848;49.798;10.228;2023-03-01T10:49:57;20.85;;;13.00;;
26756;SDS011;23848;49.798;10.228;2023-03-01T10:52:30;19.48;;;13.65;;
26756;SDS011;23848;49.798;10.228;2023-03-01T10:54:59;21.42;;;13.93;;
26756;SDS011;23848;49.798;10.228;2023-03-01T10:57:32;20.27;;;13.02;;
26756;SDS011;23848;49.798;10.228;2023-03-01T11:00:22;19.27;;;12.73;;
26756;SDS011;23848;49.798;10.228;2023-03-01T11:03:02;21.08;;;13.60;;
26756;SDS011;23848;49.798;10.228;2023-03-01T11:05:31;22.60;;;14.02;;
26756;SDS011;23848;49.798;10.228;2023-03-01T11:08:01;21.45;;;13.52;;
26756;SDS011;23848;49.798;10.228;2023-03-01T11:10:31;19.08;;;12.18;;
26756;SDS011;23848;49.798;10.228;2023-03-01T11:13:06;21.55;;;13.18;;
26756;SDS011;23848;49.798;10.228;2023-03-01T11:15:36;20.27;;;13.32;;
26756;SDS011;23848;49.798;10.228;2023-03-01T11:18:04;21.27;;;14.18;;
26756;SDS011;23848;49.798;10.228;2023-03-01T11:20:45;21.92;;;13.02;;
26756;SDS011;23848;49.798;10.228;2023-03-01T11:23:14;18.63;;;12.48;;
26756;SDS011;23848;49.798;10.228;2023-03-01T11:25:43;22.77;;;13.57;;
26756;SDS011;23848;49.798;10.228;2023-03-01T11:28:14;19.95;;;13.52;;
26756;SDS011;23848;49.798;10.228;2023-03-01T11:30:47;23.67;;;13.70;;
26756;SDS011;23848;49.798;10.228;2023-03-01T11:33:34;19.70;;;13.20;;
26756;SDS011;23848;49.798;10.228;2023-03-01T11:36:05;20.70;;;14.20;;
26756;SDS011;23848;49.798;10.228;2023-03-01T11:38:35;21.98;;;14.77;;
26756;SDS011;23848;49.798;10.228;2023-03-01T11:41:05;21.35;;;13.13;;
26756;SDS011;23848;49.798;10.228;2023-03-01T11:43:36;19.48;;;13.20;;
26756;SDS011;23848;49.798;10.228;2023-03-01T11:49:12;23.77;;;14.50;;
26756;SDS011;23848;49.798;10.228;2023-03-01T11:51:47;22.08;;;12.82;;
26756;SDS011;23848;49.798;10.228;2023-03-01T11:54:26;20.42;;;13.50;;
26756;SDS011;23848;49.798;10.228;2023-03-01T11:57:00;18.77;;;12.20;;
26756;SDS011;23848;49.798;10.228;2023-03-01T11:59:33;21.35;;;13.50;;
26756;SDS011;23848;49.798;10.228;2023-03-01T12:05:12;18.85;;;12.55;;
26756;SDS011;23848;49.798;10.228;2023-03-01T12:07:45;19.02;;;12.18;;
26756;SDS011;23848;49.798;10.228;2023-03-01T12:10:19;20.17;;;13.13;;
26756;SDS011;23848;49.798;10.228;2023-03-01T12:12:52;23.65;;;13.30;;
26756;SDS011;23848;49.798;10.228;2023-03-01T12:15:30;18.13;;;12.00;;
26756;SDS011;23848;49.798;10.228;2023-03-01T12:18:13;18.88;;;11.90;;
26756;SDS011;23848;49.798;10.228;2023-03-01T12:20:46;19.52;;;12.77;;
26756;SDS011;23848;49.798;10.228;2023-03-01T12:26:06;19.13;;;12.82;;
26756;SDS011;23848;49.798;10.228;2023-03-01T12:31:38;22.27;;;13.70;;
26756;SDS011;23848;49.798;10.228;2023-03-01T12:34:11;22.75;;;13.93;;
26756;SDS011;23848;49.798;10.228;2023-03-01T12:36:47;18.63;;;12.73;;
26756;SDS011;23848;49.798;10.228;2023-03-01T12:39:24;23.13;;;13.85;;
26756;SDS011;23848;49.798;10.228;2023-03-01T12:41:57;22.23;;;14.90;;
26756;SDS011;23848;49.798;10.228;2023-03-01T12:44:30;23.08;;;14.52;;
26756;SDS011;23848;49.798;10.228;2023-03-01T12:47:15;23.05;;;14.57;;
26756;SDS011;23848;49.798;10.228;2023-03-01T12:49:48;21.60;;;14.55;;
26756;SDS011;23848;49.798;10.228;2023-03-01T12:52:23;20.88;;;14.15;;
26756;SDS011;23848;49.798;10.228;2023-03-01T12:55:06;19.15;;;13.32;;
26756;SDS011;23848;49.798;10.228;2023-03-01T12:57:37;22.27;;;14.13;;
26756;SDS011;23848;49.798;10.228;2023-03-01T13:00:10;22.88;;;15.32;;
26756;SDS011;23848;49.798;10.228;2023-03-01T13:02:47;20.17;;;14.13;;
26756;SDS011;23848;49.798;10.228;2023-03-01T13:05:22;21.73;;;14.20;;
26756;SDS011;23848;49.798;10.228;2023-03-01T13:07:55;23.75;;;13.90;;
26756;SDS011;23848;49.798;10.228;2023-03-01T13:10:26;22.40;;;14.27;;
26756;SDS011;23848;49.798;10.228;2023-03-01T13:13:02;19.58;;;13.40;;
26756;SDS011;23848;49.798;10.228;2023-03-01T13:15:34;26.42;;;13.50;;
26756;SDS011;23848;49.798;10.228;2023-03-01T13:18:04;22.55;;;13.95;;
26756;SDS011;23848;49.798;10.228;2023-03-01T13:20:34;23.23;;;14.18;;
26756;SDS011;23848;49.798;10.228;2023-03-01T13:23:06;20.65;;;13.15;;
26756;SDS011;23848;49.798;10.228;2023-03-01T13:25:42;21.13;;;13.75;;
26756;SDS011;23848;49.798;10.228;2023-03-01T13:28:48;23.08;;;14.05;;
26756;SDS011;23848;49.798;10.228;2023-03-01T13:34:04;22.05;;;14.20;;
26756;SDS011;23848;49.798;10.228;2023-03-01T13:36:46;20.85;;;13.38;;
26756;SDS011;23848;49.798;10.228;2023-03-01T13:39:30;19.70;;;12.55;;
26756;SDS011;23848;49.798;10.228;2023-03-01T13:44:30;21.88;;;12.70;;
26756;SDS011;23848;49.798;10.228;2023-03-01T13:47:02;18.77;;;12.55;;
26756;SDS011;23848;49.798;10.228;2023-03-01T13:49:41;19.08;;;12.45;;
26756;SDS011;23848;49.798;10.228;2023-03-01T13:52:35;19.10;;;12.20;;
26756;SDS011;23848;49.798;10.228;2023-03-01T13:55:14;17.48;;;11.45;;
26756;SDS011;23848;49.798;10.228;2023-03-01T13:57:44;21.67;;;12.77;;
26756;SDS011;23848;49.798;10.228;2023-03-01T14:00:27;20.33;;;13.32;;
26756;SDS011;23848;49.798;10.228;2023-03-01T14:03:02;18.65;;;11.43;;
26756;SDS011;23848;49.798;10.228;2023-03-01T14:05:32;20.75;;;12.75;;
26756;SDS011;23848;49.798;10.228;2023-03-01T14:08:02;17.20;;;12.18;;
26756;SDS011;23848;49.798;10.228;2023-03-01T14:10:35;22.80;;;12.00;;
26756;SDS011;23848;49.798;10.228;2023-03-01T14:13:08;18.83;;;12.23;;
26756;SDS011;23848;49.798;10.228;2023-03-01T14:15:42;17.20;;;11.30;;
26756;SDS011;23848;49.798;10.228;2023-03-01T14:18:12;20.58;;;12.00;;
26756;SDS011;23848;49.798;10.228;2023-03-01T14:20:45;14.68;;;10.55;;
26756;SDS011;23848;49.798;10.228;2023-03-01T14:23:23;17.67;;;12.25;;
26756;SDS011;23848;49.798;10.228;2023-03-01T14:25:55;20.50;;;12.27;;
26756;SDS011;23848;49.798;10.228;2023-03-01T14:28:24;18.90;;;12.32;;
26756;SDS011;23848;49.798;10.228;2023-03-01T14:30:54;17.25;;;11.50;;
26756;SDS011;23848;49.798;10.228;2023-03-01T14:33:24;17.95;;;12.02;;
26756;SDS011;23848;49.798;10.228;2023-03-01T14:35:54;19.85;;;12.15;;
26756;SDS011;23848;49.798;10.228;2023-03-01T14:38:23;18.25;;;11.60;;
26756;SDS011;23848;49.798;10.228;2023-03-01T14:40:52;19.60;;;13.52;;
26756;SDS011;23848;49.798;10.228;2023-03-01T14:43:24;22.55;;;14.23;;
26756;SDS011;23848;49.798;10.228;2023-03-01T14:45:53;24.67;;;13.57;;